Time;durP1;ratioP1;P1;durP2;ratioP2;P2;SDS_P1;SDS_P2;PMS_P1;PMS_P2;Temp;Humidity;BMP_temperature;BMP_pressure;BME280_temperature;BME280_humidity;BME280_pressure;Samples;Min_cycle;Max_cycle;Signal;HPM_P1;HPM_P2
2023/04/12 00:00:25;;;;;;;10.77;2.50;;;9.90;99.90;;;;;;5072429;28;20075;-53
2023/04/12 00:02:52;;;;;;;7.55;2.05;;;9.90;99.90;;;;;;5071758;28;20060;-53
2023/04/12 00:05:21;;;;;;;9.57;2.15;;;9.90;99.90;;;;;;5070974;28;20048;-53
2023/04/12 00:07:48;;;;;;;11.90;2.17;;;9.90;99.90;;;;;;5072373;28;20044;-57
2023/04/12 00:10:14;;;;;;;6.40;1.65;;;9.90;99.90;;;;;;5071473;28;20039;-54
2023/04/12 00:12:40;;;;;;;10.80;2.17;;;9.90;99.90;;;;;;5072001;28;20108;-50
2023/04/12 00:15:07;;;;;;;8.55;2.10;;;9.90;99.90;;;;;;5071843;28;20028;-54
2023/04/12 00:17:32;;;;;;;8.70;1.80;;;9.80;99.90;;;;;;5071995;28;20167;-54
2023/04/12 00:19:58;;;;;;;8.15;2.15;;;9.80;99.90;;;;;;5072191;28;20127;-48
2023/04/12 00:22:25;;;;;;;11.10;2.17;;;9.80;99.90;;;;;;5071715;28;20567;-53
2023/04/12 00:24:51;;;;;;;10.05;2.28;;;9.80;99.90;;;;;;5071760;28;20111;-52
2023/04/12 00:27:16;;;;;;;12.25;2.22;;;9.80;99.90;;;;;;5071951;28;20115;-55
2023/04/12 00:29:42;;;;;;;7.97;2.20;;;9.80;99.90;;;;;;5071844;28;20496;-55
2023/04/12 00:32:08;;;;;;;5.90;1.80;;;9.90;99.90;;;;;;5070636;28;20040;-54
2023/04/12 00:34:33;;;;;;;10.05;2.50;;;9.80;99.90;;;;;;5071436;28;20047;-54
2023/04/12 00:37:01;;;;;;;10.15;2.33;;;9.80;99.90;;;;;;5071979;28;20083;-56
2023/04/12 00:39:27;;;;;;;10.10;2.55;;;9.80;99.90;;;;;;5071258;28;20043;-54
2023/04/12 00:41:52;;;;;;;9.05;2.10;;;9.80;99.90;;;;;;5071772;28;20383;-54
2023/04/12 00:44:18;;;;;;;7.22;1.67;;;9.70;99.90;;;;;;5071175;28;20041;-55
2023/04/12 00:46:45;;;;;;;9.75;2.00;;;9.70;99.90;;;;;;5071618;28;20028;-53
2023/04/12 00:49:11;;;;;;;9.52;2.13;;;9.70;99.90;;;;;;5071551;28;20044;-54
2023/04/12 00:51:38;;;;;;;8.80;2.10;;;9.60;99.90;;;;;;5071143;28;20052;-54
2023/04/12 00:54:05;;;;;;;9.38;2.28;;;9.60;99.90;;;;;;5070923;28;20040;-52
2023/04/12 00:56:31;;;;;;;6.75;1.95;;;9.50;99.90;;;;;;5071290;28;20040;-54
2023/04/12 00:58:57;;;;;;;6.03;1.75;;;9.50;99.90;;;;;;5070330;28;20124;-54
2023/04/12 01:01:23;;;;;;;8.35;2.20;;;9.50;99.90;;;;;;5069448;28;20111;-57
2023/04/12 01:03:53;;;;;;;7.40;2.30;;;9.50;99.90;;;;;;5071238;28;20043;-55
2023/04/12 01:06:47;;;;;;;8.32;1.73;;;9.50;99.90;;;;;;5071029;28;20046;-54
2023/04/12 01:09:43;;;;;;;9.70;2.30;;;9.40;99.90;;;;;;5070958;28;20040;-51
2023/04/12 01:12:46;;;;;;;8.27;2.08;;;9.40;99.90;;;;;;5070312;28;20037;-51
2023/04/12 01:15:14;;;;;;;7.13;2.13;;;9.30;99.90;;;;;;5069893;28;20115;-49
2023/04/12 01:17:51;;;;;;;7.70;1.98;;;9.30;99.90;;;;;;5070478;28;20395;-49
2023/04/12 01:20:22;;;;;;;8.07;2.25;;;9.30;99.90;;;;;;5070803;28;20053;-55
2023/04/12 01:22:51;;;;;;;8.10;2.10;;;9.20;99.90;;;;;;5070299;28;20539;-51
2023/04/12 01:25:38;;;;;;;7.53;2.22;;;9.20;99.90;;;;;;5070843;28;20387;-55
2023/04/12 01:28:05;;;;;;;8.43;2.40;;;9.20;99.90;;;;;;5070721;28;20403;-50
2023/04/12 01:30:32;;;;;;;5.68;1.83;;;9.20;99.90;;;;;;5070454;28;20041;-52
2023/04/12 01:33:00;;;;;;;8.25;2.20;;;9.20;99.90;;;;;;5067991;28;20088;-52
2023/04/12 01:35:29;;;;;;;6.10;1.80;;;9.20;99.90;;;;;;5070596;28;20032;-53
2023/04/12 01:37:57;;;;;;;7.50;1.95;;;9.20;99.90;;;;;;5069822;28;20039;-55
2023/04/12 01:40:23;;;;;;;9.25;2.50;;;9.10;99.90;;;;;;5070722;28;20070;-53
2023/04/12 01:42:49;;;;;;;11.38;2.45;;;9.10;99.90;;;;;;5069072;28;20037;-53
2023/04/12 01:45:15;;;;;;;10.18;2.33;;;9.10;99.90;;;;;;5070384;28;20032;-54
2023/04/12 01:47:41;;;;;;;7.80;2.13;;;9.00;99.90;;;;;;5070563;28;20040;-53
2023/04/12 01:50:19;;;;;;;11.45;2.95;;;9.00;99.90;;;;;;5070375;28;20162;-50
2023/04/12 01:52:58;;;;;;;6.85;2.67;;;9.00;99.90;;;;;;5070321;28;20036;-55
2023/04/12 01:55:26;;;;;;;10.77;2.22;;;9.00;99.90;;;;;;5070208;28;20047;-54
2023/04/12 01:57:52;;;;;;;9.82;2.10;;;8.90;99.90;;;;;;5070304;28;20047;-52
2023/04/12 02:00:19;;;;;;;8.20;2.28;;;8.90;99.90;;;;;;5070455;28;20048;-53
2023/04/12 02:02:45;;;;;;;10.20;2.92;;;8.90;99.90;;;;;;5069825;28;20037;-52
2023/04/12 02:05:11;;;;;;;8.65;2.10;;;8.90;99.90;;;;;;5070089;28;20032;-54
2023/04/12 02:07:39;;;;;;;8.75;2.30;;;8.90;99.90;;;;;;5068652;28;20044;-53
2023/04/12 02:10:05;;;;;;;6.70;1.98;;;8.90;99.90;;;;;;5068702;28;20036;-52
2023/04/12 02:12:31;;;;;;;7.63;2.60;;;8.80;99.90;;;;;;5070216;28;20036;-55
2023/04/12 02:14:57;;;;;;;7.63;2.08;;;8.90;99.90;;;;;;5070019;28;20467;-56
2023/04/12 02:17:23;;;;;;;9.20;2.10;;;8.90;99.90;;;;;;5070179;28;20040;-57
2023/04/12 02:19:49;;;;;;;6.90;2.15;;;8.80;99.90;;;;;;5053651;28;20041;-49
2023/04/12 02:22:15;;;;;;;6.90;2.28;;;8.80;99.90;;;;;;5058659;28;20518;-55
2023/04/12 02:24:41;;;;;;;11.23;2.40;;;8.80;99.90;;;;;;5069974;28;20086;-53
2023/04/12 02:27:06;;;;;;;10.02;2.15;;;8.80;99.90;;;;;;5070166;28;20475;-53
2023/04/12 02:29:32;;;;;;;9.00;2.88;;;8.80;99.90;;;;;;5067728;28;20066;-48
2023/04/12 02:31:58;;;;;;;10.07;2.38;;;8.80;99.90;;;;;;5050026;28;20041;-54
2023/04/12 02:34:23;;;;;;;5.53;1.90;;;8.70;99.90;;;;;;5050577;28;20043;-56
2023/04/12 02:36:49;;;;;;;6.78;1.70;;;8.70;99.90;;;;;;5066149;28;20041;-57
2023/04/12 02:39:20;;;;;;;7.20;2.10;;;8.70;99.90;;;;;;5069845;28;20047;-53
2023/04/12 02:41:46;;;;;;;9.60;2.17;;;8.80;99.90;;;;;;5069696;28;20391;-57
2023/04/12 02:44:12;;;;;;;7.38;2.17;;;8.70;99.90;;;;;;5069770;28;20029;-51
2023/04/12 02:46:37;;;;;;;7.90;2.15;;;8.70;99.90;;;;;;5070430;28;20044;-55
2023/04/12 02:49:03;;;;;;;8.52;2.50;;;8.70;99.90;;;;;;5070400;28;20076;-53
2023/04/12 02:51:30;;;;;;;7.45;2.20;;;8.60;99.90;;;;;;5069700;28;20039;-50
2023/04/12 02:53:55;;;;;;;7.85;2.20;;;8.60;99.90;;;;;;5070472;28;20492;-54
2023/04/12 02:56:23;;;;;;;7.30;2.50;;;8.60;99.90;;;;;;5073810;28;20044;-54
2023/04/12 02:58:49;;;;;;;7.80;2.17;;;8.70;99.90;;;;;;5073610;28;20110;-53
2023/04/12 03:01:15;;;;;;;7.82;2.13;;;8.60;99.90;;;;;;5073574;28;20125;-51
2023/04/12 03:03:41;;;;;;;8.23;2.90;;;8.70;99.90;;;;;;5074106;28;20041;-51
2023/04/12 03:06:08;;;;;;;12.20;2.45;;;8.70;99.90;;;;;;5072551;28;20475;-57
2023/04/12 03:08:34;;;;;;;7.40;2.45;;;8.70;99.90;;;;;;5073702;28;20040;-55
2023/04/12 03:11:00;;;;;;;7.78;1.88;;;8.70;99.90;;;;;;5073071;28;20051;-54
2023/04/12 03:13:26;;;;;;;6.10;1.73;;;8.60;99.90;;;;;;5073145;28;20036;-54
2023/04/12 03:15:58;;;;;;;7.32;1.58;;;8.70;99.90;;;;;;5073221;28;20068;-53
2023/04/12 03:18:24;;;;;;;8.98;2.08;;;8.70;99.90;;;;;;5073553;28;20119;-51
2023/04/12 03:20:51;;;;;;;7.38;1.70;;;8.90;99.90;;;;;;5073032;28;20067;-52
2023/04/12 03:23:17;;;;;;;8.95;1.65;;;8.70;99.90;;;;;;5071516;28;20105;-51
2023/04/12 03:25:43;;;;;;;5.05;1.40;;;8.70;99.90;;;;;;5073065;28;20044;-51
2023/04/12 03:28:09;;;;;;;5.80;1.55;;;8.60;99.90;;;;;;5073170;28;20369;-56
2023/04/12 03:30:35;;;;;;;6.38;2.10;;;8.70;99.90;;;;;;5071685;28;20051;-55
2023/04/12 03:33:00;;;;;;;7.32;1.80;;;8.60;99.90;;;;;;5072735;28;20036;-51
2023/04/12 03:35:26;;;;;;;8.38;1.77;;;8.70;99.90;;;;;;5073286;28;20044;-56
2023/04/12 03:37:52;;;;;;;6.43;1.80;;;8.80;99.90;;;;;;5073026;28;20049;-56
2023/04/12 03:40:17;;;;;;;5.38;2.00;;;8.70;99.90;;;;;;5072837;28;20067;-52
2023/04/12 03:42:43;;;;;;;8.55;1.85;;;8.60;99.90;;;;;;5072953;28;20036;-48
2023/04/12 03:45:09;;;;;;;5.55;1.85;;;8.60;99.90;;;;;;5072479;28;20082;-56
2023/04/12 03:47:35;;;;;;;8.85;1.70;;;8.60;99.90;;;;;;5072955;28;20055;-51
2023/04/12 03:50:05;;;;;;;9.35;2.15;;;8.60;99.90;;;;;;5072547;28;20044;-53
2023/04/12 03:52:32;;;;;;;7.68;1.90;;;8.60;99.90;;;;;;5071226;28;20051;-53
2023/04/12 03:54:57;;;;;;;7.95;2.20;;;8.60;99.90;;;;;;5072300;28;20109;-51
2023/04/12 03:57:23;;;;;;;6.38;1.83;;;8.50;99.90;;;;;;5072749;28;20120;-56
2023/04/12 03:59:50;;;;;;;9.32;2.17;;;8.60;99.90;;;;;;5072428;28;20079;-54
2023/04/12 04:02:15;;;;;;;6.32;1.83;;;8.60;99.90;;;;;;5072095;28;20045;-52
2023/04/12 04:04:41;;;;;;;5.60;2.00;;;8.60;99.90;;;;;;5072177;28;20039;-50
2023/04/12 04:07:07;;;;;;;4.93;1.70;;;8.60;99.90;;;;;;5072164;28;20041;-51
2023/04/12 04:09:33;;;;;;;8.77;2.28;;;8.50;99.90;;;;;;5072329;28;20039;-51
2023/04/12 04:12:00;;;;;;;5.85;2.15;;;8.80;99.90;;;;;;5072078;28;20181;-57
2023/04/12 04:14:26;;;;;;;7.82;2.30;;;8.50;99.90;;;;;;5072036;28;20040;-56
2023/04/12 04:16:52;;;;;;;8.10;2.13;;;8.40;99.90;;;;;;5072238;28;20041;-54
2023/04/12 04:19:18;;;;;;;7.18;2.28;;;8.50;99.90;;;;;;5072026;28;20126;-53
2023/04/12 04:21:44;;;;;;;8.38;2.45;;;8.60;99.90;;;;;;5071982;28;20088;-53
2023/04/12 04:24:13;;;;;;;6.35;2.75;;;8.50;99.90;;;;;;5070755;28;20133;-54
2023/04/12 04:26:39;;;;;;;8.30;3.30;;;8.40;99.90;;;;;;5071580;28;20036;-57
2023/04/12 04:29:04;;;;;;;9.25;3.35;;;8.30;99.90;;;;;;5072250;28;20031;-56
2023/04/12 04:31:33;;;;;;;8.18;3.47;;;8.30;99.90;;;;;;5070226;28;20064;-56
2023/04/12 04:34:00;;;;;;;10.60;3.92;;;8.40;99.90;;;;;;5071747;28;20041;-49
2023/04/12 04:36:26;;;;;;;13.05;4.80;;;8.40;99.90;;;;;;5071811;28;20438;-53
2023/04/12 04:38:52;;;;;;;10.48;4.45;;;8.30;99.90;;;;;;5072121;28;20060;-48
2023/04/12 04:41:21;;;;;;;12.45;5.32;;;8.40;99.90;;;;;;5071721;28;20072;-52
2023/04/12 04:43:47;;;;;;;12.90;5.78;;;8.20;99.90;;;;;;5071719;28;20036;-52
2023/04/12 04:46:13;;;;;;;14.55;7.20;;;8.20;99.90;;;;;;5071569;28;20028;-54
2023/04/12 04:48:40;;;;;;;13.55;7.28;;;8.30;99.90;;;;;;5071343;28;20032;-55
2023/04/12 04:51:06;;;;;;;12.65;7.22;;;8.20;99.90;;;;;;5071633;28;20539;-52
2023/04/12 04:53:31;;;;;;;17.60;9.88;;;8.00;99.90;;;;;;5071884;28;20111;-49
2023/04/12 04:55:58;;;;;;;16.70;9.98;;;8.30;99.90;;;;;;5071954;28;20041;-57
2023/04/12 04:58:24;;;;;;;19.33;9.75;;;8.30;99.90;;;;;;5069616;28;20036;-50
2023/04/12 05:00:50;;;;;;;19.40;10.25;;;8.00;99.90;;;;;;5070173;28;20037;-56
2023/04/12 05:03:17;;;;;;;18.10;9.68;;;8.30;99.90;;;;;;5068659;28;20047;-55
2023/04/12 05:05:42;;;;;;;23.17;11.20;;;8.30;99.90;;;;;;5069239;28;20048;-57
2023/04/12 05:08:08;;;;;;;16.83;10.05;;;8.30;99.90;;;;;;5071618;28;20029;-58
2023/04/12 05:10:34;;;;;;;18.25;10.43;;;8.40;99.90;;;;;;5070951;28;20056;-53
2023/04/12 05:12:59;;;;;;;19.95;10.65;;;8.30;99.90;;;;;;5070675;28;20048;-55
2023/04/12 05:15:25;;;;;;;16.77;9.55;;;8.00;99.90;;;;;;5070884;28;20089;-54
2023/04/12 05:17:51;;;;;;;18.40;9.18;;;8.30;99.90;;;;;;5070403;28;20045;-56
2023/04/12 05:20:17;;;;;;;15.20;9.10;;;8.20;99.90;;;;;;5071104;28;20548;-53
2023/04/12 05:22:42;;;;;;;16.52;8.45;;;8.30;99.90;;;;;;5070802;28;20052;-50
2023/04/12 05:25:09;;;;;;;17.73;8.73;;;8.30;99.90;;;;;;5069872;28;20175;-52
2023/04/12 05:27:35;;;;;;;19.55;8.75;;;7.90;99.90;;;;;;5069518;28;20094;-50
2023/04/12 05:30:00;;;;;;;22.73;9.15;;;7.90;99.90;;;;;;5070767;28;20060;-54
2023/04/12 05:32:26;;;;;;;16.75;7.50;;;7.90;99.90;;;;;;5070574;28;20485;-52
2023/04/12 05:34:52;;;;;;;18.77;7.45;;;8.30;99.90;;;;;;5071034;28;20040;-49
2023/04/12 05:37:17;;;;;;;16.67;7.57;;;8.20;99.90;;;;;;5071262;28;20495;-55
2023/04/12 05:39:43;;;;;;;16.05;6.88;;;7.90;99.90;;;;;;5071037;28;20044;-57
2023/04/12 05:42:09;;;;;;;16.45;7.13;;;8.30;99.90;;;;;;5070551;28;20502;-50
2023/04/12 05:44:35;;;;;;;15.77;7.15;;;8.20;99.90;;;;;;5068882;28;20082;-55
2023/04/12 05:47:02;;;;;;;15.73;6.63;;;7.80;99.90;;;;;;5070679;28;20434;-51
2023/04/12 05:49:30;;;;;;;16.08;7.45;;;8.00;99.90;;;;;;5069309;28;20138;-52
2023/04/12 05:51:56;;;;;;;15.43;6.90;;;8.20;99.90;;;;;;5071310;28;20098;-59
2023/04/12 05:54:21;;;;;;;16.20;6.70;;;8.30;99.90;;;;;;5070358;28;20036;-53
2023/04/12 05:56:47;;;;;;;16.50;6.95;;;8.00;99.90;;;;;;5070437;28;20120;-53
2023/04/12 05:59:12;;;;;;;13.05;6.40;;;8.30;99.90;;;;;;5070209;28;20111;-56
2023/04/12 06:01:41;;;;;;;16.50;7.35;;;7.90;99.90;;;;;;5070183;28;20085;-54
2023/04/12 06:04:07;;;;;;;11.45;6.78;;;7.90;99.90;;;;;;5070317;28;20438;-54
2023/04/12 06:06:33;;;;;;;14.13;7.35;;;8.30;99.90;;;;;;5070314;28;20041;-54
2023/04/12 06:09:01;;;;;;;14.38;10.30;;;8.00;99.90;;;;;;5070389;28;20040;-52
2023/04/12 06:11:27;;;;;;;15.25;7.57;;;8.20;99.90;;;;;;5070197;28;20040;-56
2023/04/12 06:13:54;;;;;;;14.77;7.68;;;8.00;99.90;;;;;;5070177;28;20177;-55
2023/04/12 06:16:19;;;;;;;12.95;7.00;;;8.30;99.90;;;;;;5070508;28;20079;-55
2023/04/12 06:18:45;;;;;;;14.85;7.88;;;8.10;99.90;;;;;;5070036;28;20487;-51
2023/04/12 06:21:12;;;;;;;12.32;7.97;;;7.90;99.90;;;;;;5070482;28;20033;-46
2023/04/12 06:23:37;;;;;;;14.15;7.57;;;7.90;99.90;;;;;;5070089;28;20517;-57
2023/04/12 06:26:03;;;;;;;15.00;7.65;;;8.00;99.90;;;;;;5070242;28;20072;-60
2023/04/12 06:28:29;;;;;;;14.73;7.93;;;8.30;99.90;;;;;;5070584;28;20049;-54
2023/04/12 06:30:54;;;;;;;10.90;7.68;;;8.40;99.90;;;;;;5074335;28;20043;-49
2023/04/12 06:33:23;;;;;;;14.98;10.85;;;8.70;99.90;;;;;;5072386;28;21305;-56
2023/04/12 06:35:49;;;;;;;12.20;7.38;;;8.50;99.90;;;;;;5066290;28;20557;-54
2023/04/12 06:38:17;;;;;;;12.90;11.15;;;8.30;99.90;;;;;;5060229;28;20033;-57
2023/04/12 06:40:42;;;;;;;17.13;8.25;;;8.50;99.90;;;;;;5059479;28;20044;-51
2023/04/12 06:43:08;;;;;;;15.70;8.55;;;8.00;99.90;;;;;;5060330;28;20232;-56
2023/04/12 06:45:34;;;;;;;20.23;9.13;;;8.10;99.90;;;;;;5061313;28;20029;-59
2023/04/12 06:47:59;;;;;;;14.10;8.75;;;8.60;99.90;;;;;;5059984;28;20490;-52
2023/04/12 06:50:25;;;;;;;15.65;9.07;;;8.50;99.90;;;;;;5059490;28;20033;-57
2023/04/12 06:52:51;;;;;;;15.75;9.45;;;8.00;99.90;;;;;;5059407;28;20418;-56
2023/04/12 06:55:17;;;;;;;15.07;9.00;;;8.30;99.90;;;;;;5061350;28;20044;-49
2023/04/12 06:57:46;;;;;;;13.85;9.57;;;8.00;99.90;;;;;;5060222;28;20399;-53
2023/04/12 07:00:12;;;;;;;14.10;9.23;;;8.50;99.90;;;;;;5062568;28;20040;-57
2023/04/12 07:02:38;;;;;;;15.02;11.88;;;8.00;99.90;;;;;;5060817;28;20037;-55
2023/04/12 07:05:06;;;;;;;14.23;9.45;;;8.00;99.90;;;;;;5061896;28;20086;-56
2023/04/12 07:07:32;;;;;;;15.52;10.27;;;8.00;99.90;;;;;;5061714;28;20483;-50
2023/04/12 07:09:59;;;;;;;16.15;10.48;;;8.50;99.90;;;;;;5063997;28;20085;-55
2023/04/12 07:12:25;;;;;;;15.05;9.95;;;8.40;99.90;;;;;;5062002;28;20033;-55
2023/04/12 07:14:50;;;;;;;20.17;11.10;;;8.00;99.90;;;;;;5062688;28;20047;-60
2023/04/12 07:17:16;;;;;;;17.30;9.45;;;8.00;99.90;;;;;;5061887;28;20045;-57
2023/04/12 07:19:43;;;;;;;14.88;9.90;;;8.10;99.90;;;;;;5062171;28;20051;-55
2023/04/12 07:22:09;;;;;;;15.52;10.15;;;8.20;99.90;;;;;;5059920;28;20061;-54
2023/04/12 07:24:34;;;;;;;15.50;9.90;;;8.00;99.90;;;;;;5058820;28;20040;-56
2023/04/12 07:27:00;;;;;;;15.55;10.50;;;8.10;99.90;;;;;;5061164;28;20455;-52
2023/04/12 07:29:26;;;;;;;15.13;10.13;;;8.10;99.90;;;;;;5058787;28;20040;-55
2023/04/12 07:31:51;;;;;;;14.75;9.80;;;8.60;99.90;;;;;;5060872;28;20047;-51
2023/04/12 07:34:17;;;;;;;17.70;10.40;;;8.50;99.90;;;;;;5059442;28;20134;-55
2023/04/12 07:36:43;;;;;;;17.98;11.25;;;8.20;99.90;;;;;;5060496;28;20400;-54
2023/04/12 07:39:13;;;;;;;14.05;10.40;;;8.30;99.90;;;;;;5060453;28;20032;-57
2023/04/12 07:41:41;;;;;;;13.85;10.20;;;8.70;99.90;;;;;;5059954;28;20040;-55
2023/04/12 07:44:07;;;;;;;16.05;11.35;;;8.70;99.90;;;;;;5058016;28;20123;-55
2023/04/12 07:46:32;;;;;;;14.52;11.20;;;8.70;99.90;;;;;;5070370;28;20131;-57
2023/04/12 07:48:58;;;;;;;14.20;10.13;;;8.50;99.90;;;;;;5070379;28;20036;-50
2023/04/12 07:51:24;;;;;;;14.93;10.45;;;8.80;99.90;;;;;;5071578;28;20391;-52
2023/04/12 07:53:50;;;;;;;13.38;10.80;;;8.50;99.90;;;;;;5072689;28;20387;-54
2023/04/12 07:56:16;;;;;;;15.93;11.02;;;8.20;99.90;;;;;;5071509;28;20048;-57
2023/04/12 07:58:42;;;;;;;16.23;12.07;;;8.30;99.90;;;;;;5072358;28;20043;-55
2023/04/12 08:01:07;;;;;;;14.52;10.38;;;8.40;99.90;;;;;;5072581;28;20033;-55
2023/04/12 08:03:33;;;;;;;15.25;10.45;;;8.90;99.90;;;;;;5071787;28;20033;-49
2023/04/12 08:05:59;;;;;;;14.75;10.35;;;8.50;99.90;;;;;;5072602;28;20037;-57
2023/04/12 08:08:24;;;;;;;14.88;10.18;;;8.60;99.90;;;;;;5072156;28;20036;-56
2023/04/12 08:10:51;;;;;;;12.93;10.13;;;8.60;99.90;;;;;;5072502;28;20071;-56
2023/04/12 08:13:17;;;;;;;12.40;9.25;;;8.70;99.90;;;;;;5072470;28;20462;-54
2023/04/12 08:15:43;;;;;;;12.80;9.65;;;9.00;99.90;;;;;;5072069;28;20043;-53
2023/04/12 08:18:10;;;;;;;14.13;10.15;;;8.50;99.90;;;;;;5072111;28;20044;-55
2023/04/12 08:20:36;;;;;;;13.15;9.77;;;9.10;99.90;;;;;;5071970;28;20056;-48
2023/04/12 08:23:02;;;;;;;12.48;9.20;;;8.70;99.90;;;;;;5072032;28;20052;-59
2023/04/12 08:25:27;;;;;;;11.45;8.63;;;8.70;99.90;;;;;;5067975;28;20208;-56
2023/04/12 08:27:53;;;;;;;13.05;8.10;;;9.20;99.90;;;;;;5071932;28;20032;-55
2023/04/12 08:30:19;;;;;;;13.68;8.07;;;8.50;99.90;;;;;;5072160;28;20028;-54
2023/04/12 08:32:45;;;;;;;11.38;7.63;;;8.90;99.90;;;;;;5071366;28;20097;-54
2023/04/12 08:35:11;;;;;;;11.35;7.20;;;8.70;99.90;;;;;;5069073;28;20063;-56
2023/04/12 08:37:36;;;;;;;14.18;7.53;;;9.30;99.90;;;;;;5067819;28;20052;-54
2023/04/12 08:40:05;;;;;;;9.70;5.68;;;8.70;99.90;;;;;;5052765;28;20045;-57
2023/04/12 08:42:33;;;;;;;8.88;5.82;;;9.10;99.90;;;;;;5064242;28;20107;-57
2023/04/12 08:45:04;;;;;;;9.50;5.80;;;8.80;99.90;;;;;;5068949;28;20041;-57
2023/04/12 08:47:31;;;;;;;10.25;6.47;;;8.80;99.90;;;;;;5069894;28;20467;-56
2023/04/12 08:49:57;;;;;;;12.02;5.82;;;8.80;99.90;;;;;;5066837;28;20040;-55
2023/04/12 08:52:22;;;;;;;7.35;5.20;;;9.30;99.90;;;;;;5062886;28;20537;-46
2023/04/12 08:54:48;;;;;;;9.27;6.97;;;8.90;99.90;;;;;;5070186;28;20040;-49
2023/04/12 08:57:17;;;;;;;10.57;5.72;;;9.00;99.90;;;;;;5056544;28;20113;-54
2023/04/12 08:59:46;;;;;;;9.38;5.72;;;9.10;99.90;;;;;;5070733;28;20088;-52
2023/04/12 09:02:13;;;;;;;10.80;6.05;;;9.50;99.90;;;;;;5070001;28;20076;-54
2023/04/12 09:04:52;;;;;;;8.88;5.53;;;9.20;99.90;;;;;;5070111;28;20115;-56
2023/04/12 09:07:18;;;;;;;11.40;5.32;;;9.70;99.90;;;;;;5070338;28;20079;-52
2023/04/12 09:09:46;;;;;;;12.07;6.05;;;9.90;99.90;;;;;;5068139;28;20042;-56
2023/04/12 09:12:12;;;;;;;6.72;5.10;;;9.60;99.90;;;;;;5069684;28;20047;-58
2023/04/12 09:14:39;;;;;;;9.00;4.90;;;9.70;99.90;;;;;;5065921;28;20040;-52
2023/04/12 09:17:22;;;;;;;12.82;4.90;;;9.70;99.90;;;;;;5056118;28;20032;-54
2023/04/12 09:19:48;;;;;;;11.75;5.22;;;9.40;99.90;;;;;;5060564;28;20070;-53
2023/04/12 09:22:14;;;;;;;8.88;5.03;;;9.70;99.90;;;;;;5058631;28;20181;-55
2023/04/12 09:24:52;;;;;;;12.35;5.35;;;10.00;99.90;;;;;;5058214;28;20036;-53
2023/04/12 09:27:20;;;;;;;14.52;5.47;;;9.40;99.90;;;;;;5058686;28;20571;-53
2023/04/12 09:29:50;;;;;;;9.57;5.05;;;9.80;99.90;;;;;;5056056;28;20028;-52
2023/04/12 09:32:27;;;;;;;10.90;5.32;;;9.80;99.90;;;;;;5059078;28;20044;-54
2023/04/12 09:34:57;;;;;;;12.70;5.38;;;9.70;99.90;;;;;;5054144;28;20048;-57
2023/04/12 09:37:23;;;;;;;12.43;5.63;;;10.20;99.90;;;;;;5059357;28;20037;-52
2023/04/12 09:40:22;;;;;;;9.77;5.47;;;10.10;99.90;;;;;;5058303;28;20036;-53
2023/04/12 09:42:53;;;;;;;15.27;6.38;;;10.70;99.90;;;;;;5053627;28;20874;-56
2023/04/12 09:45:24;;;;;;;13.95;5.85;;;10.80;99.90;;;;;;5055602;28;20036;-56
2023/04/12 09:47:50;;;;;;;11.27;4.88;;;10.90;99.90;;;;;;5057733;28;20025;-54
2023/04/12 09:50:21;;;;;;;12.02;4.93;;;11.00;99.90;;;;;;5056295;28;20173;-51
2023/04/12 09:52:47;;;;;;;15.50;6.93;;;10.90;99.90;;;;;;5056393;28;20105;-53
2023/04/12 09:55:14;;;;;;;10.18;5.20;;;10.80;99.90;;;;;;5057349;28;20461;-56
2023/04/12 09:57:42;;;;;;;13.23;5.78;;;11.00;99.90;;;;;;5058390;28;20060;-54
2023/04/12 10:00:16;;;;;;;10.95;4.32;;;11.20;99.90;;;;;;5058486;28;20039;-58
2023/04/12 10:02:45;;;;;;;19.20;4.75;;;11.40;99.90;;;;;;5058832;28;20049;-54
2023/04/12 10:05:15;;;;;;;14.40;4.18;;;11.50;99.90;;;;;;5055711;28;20044;-52
2023/04/12 10:07:42;;;;;;;13.70;3.80;;;11.60;99.90;;;;;;5054269;28;20043;-53
2023/04/12 10:10:12;;;;;;;13.27;4.38;;;11.70;99.90;;;;;;5054867;28;20515;-56
2023/04/12 10:12:43;;;;;;;13.38;3.65;;;11.90;99.90;;;;;;5057344;28;20055;-54
2023/04/12 10:15:12;;;;;;;16.13;3.25;;;12.00;99.90;;;;;;5054984;28;20088;-53
2023/04/12 10:17:46;;;;;;;18.85;3.85;;;12.10;99.90;;;;;;5057833;28;20040;-54
2023/04/12 10:20:17;;;;;;;13.27;2.88;;;12.20;99.90;;;;;;5057380;28;20123;-52
2023/04/12 10:22:47;;;;;;;19.48;3.05;;;12.40;99.90;;;;;;5058507;28;20399;-52
2023/04/12 10:25:22;;;;;;;13.25;2.53;;;12.40;99.90;;;;;;5053846;28;20099;-53
2023/04/12 10:27:47;;;;;;;;;;;12.30;99.90;;;;;;5057872;28;20020;-55
2023/04/12 10:30:29;;;;;;;11.65;2.60;;;12.30;99.90;;;;;;5056588;28;20312;-56
2023/04/12 10:33:01;;;;;;;15.35;2.65;;;12.30;99.90;;;;;;5056829;28;20051;-55
2023/04/12 10:35:27;;;;;;;8.35;2.60;;;12.20;99.90;;;;;;5057225;28;20090;-54
2023/04/12 10:38:01;;;;;;;12.30;2.95;;;12.10;99.90;;;;;;5055423;28;20125;-53
2023/04/12 10:40:27;;;;;;;14.45;2.65;;;12.20;99.90;;;;;;5056548;28;20028;-58
2023/04/12 10:43:21;;;;;;;10.73;3.03;;;12.30;99.90;;;;;;5058383;28;20048;-56
2023/04/12 10:45:48;;;;;;;11.02;2.85;;;12.30;99.90;;;;;;5058377;28;20032;-54
2023/04/12 10:48:39;;;;;;;12.63;3.20;;;12.30;99.90;;;;;;5057545;28;20436;-54
2023/04/12 10:51:24;;;;;;;16.30;3.33;;;12.30;99.90;;;;;;5057351;28;20415;-49
2023/04/12 10:54:14;;;;;;;13.35;2.92;;;12.30;99.90;;;;;;5058489;28;20060;-54
2023/04/12 10:56:41;;;;;;;14.57;3.47;;;12.30;99.90;;;;;;5058277;28;20087;-54
2023/04/12 10:59:08;;;;;;;12.68;3.00;;;12.40;99.90;;;;;;5058711;28;20059;-57
2023/04/12 11:01:35;;;;;;;13.48;2.88;;;12.50;99.90;;;;;;5058933;28;20371;-54
2023/04/12 11:04:16;;;;;;;13.43;2.67;;;12.50;99.90;;;;;;5059134;28;20029;-55
2023/04/12 11:07:03;;;;;;;15.95;2.83;;;12.40;99.90;;;;;;5058561;28;20040;-50
2023/04/12 11:09:31;;;;;;;13.95;2.83;;;12.40;99.90;;;;;;5058699;28;20921;-55
2023/04/12 11:12:03;;;;;;;13.68;2.75;;;12.40;99.90;;;;;;5058365;28;20047;-55
2023/04/12 11:14:37;;;;;;;15.55;2.80;;;12.50;99.90;;;;;;5058156;28;20468;-55
2023/04/12 11:17:05;;;;;;;12.80;2.72;;;12.50;99.90;;;;;;5062375;28;20076;-55
2023/04/12 11:19:42;;;;;;;17.05;3.00;;;12.60;99.90;;;;;;5061419;28;20036;-56
2023/04/12 11:22:10;;;;;;;15.25;3.10;;;12.60;99.90;;;;;;5059692;28;20053;-56
2023/04/12 11:24:39;;;;;;;11.57;2.15;;;12.50;99.90;;;;;;5060258;28;20221;-57
2023/04/12 11:27:05;;;;;;;11.55;2.40;;;12.40;99.90;;;;;;5060083;28;20036;-51
2023/04/12 11:29:31;;;;;;;12.60;2.60;;;12.40;99.90;;;;;;5058984;28;20040;-60
2023/04/12 11:31:57;;;;;;;16.55;2.72;;;12.40;99.90;;;;;;5059342;28;20104;-55
2023/04/12 11:34:24;;;;;;;15.68;2.72;;;12.50;99.90;;;;;;5060461;28;20098;-56
2023/04/12 11:36:53;;;;;;;12.15;2.30;;;12.50;99.90;;;;;;5061487;28;20040;-54
2023/04/12 11:39:20;;;;;;;12.40;2.10;;;12.50;99.90;;;;;;5058911;28;20118;-52
2023/04/12 11:41:47;;;;;;;9.98;2.30;;;12.50;99.90;;;;;;5059437;28;20072;-51
2023/04/12 11:44:17;;;;;;;14.50;3.53;;;12.60;99.90;;;;;;5059922;28;20036;-53
2023/04/12 11:46:47;;;;;;;17.70;2.67;;;12.70;99.90;;;;;;5059679;28;20040;-58
2023/04/12 11:49:16;;;;;;;10.90;2.40;;;12.70;99.90;;;;;;5059183;28;20051;-50
2023/04/12 11:51:43;;;;;;;11.40;2.38;;;12.70;99.90;;;;;;5061361;28;20236;-51
2023/04/12 11:54:10;;;;;;;20.50;3.35;;;12.60;99.90;;;;;;5060927;28;20040;-56
2023/04/12 11:56:36;;;;;;;13.73;2.83;;;12.60;99.90;;;;;;5060534;28;20075;-58
2023/04/12 11:59:02;;;;;;;19.40;3.03;;;12.60;99.90;;;;;;5059063;28;20068;-52
2023/04/12 12:01:30;;;;;;;13.73;3.05;;;12.60;99.90;;;;;;5058597;28;20032;-56
2023/04/12 12:04:00;;;;;;;12.95;2.42;;;12.80;99.90;;;;;;5058539;28;20033;-56
2023/04/12 12:06:26;;;;;;;16.30;3.00;;;12.90;99.90;;;;;;5057502;28;20040;-53
2023/04/12 12:08:53;;;;;;;14.60;3.60;;;12.90;99.90;;;;;;5059581;28;20537;-54
2023/04/12 12:11:23;;;;;;;15.63;2.70;;;12.90;99.90;;;;;;5060087;28;20121;-55
2023/04/12 12:13:53;;;;;;;13.40;3.75;;;12.80;99.90;;;;;;5058039;28;20123;-53
2023/04/12 12:16:29;;;;;;;17.33;2.85;;;12.80;99.90;;;;;;5058587;28;20131;-53
2023/04/12 12:18:55;;;;;;;17.45;2.58;;;12.80;99.90;;;;;;5058425;28;20032;-56
2023/04/12 12:21:22;;;;;;;15.95;3.08;;;12.80;99.90;;;;;;5057494;28;20082;-53
2023/04/12 12:23:48;;;;;;;12.75;3.15;;;12.90;99.90;;;;;;5059373;28;20052;-56
2023/04/12 12:26:21;;;;;;;14.73;2.55;;;13.10;99.90;;;;;;5059013;28;20424;-54
2023/04/12 12:28:54;;;;;;;10.32;2.30;;;13.10;99.90;;;;;;5056152;28;20041;-51
2023/04/12 12:31:26;;;;;;;10.55;2.40;;;13.20;99.90;;;;;;5054853;28;20036;-57
2023/04/12 12:33:57;;;;;;;10.25;2.17;;;13.10;99.90;;;;;;5061330;28;20036;-54
2023/04/12 12:36:37;;;;;;;17.48;3.30;;;13.10;99.90;;;;;;5064896;28;20033;-53
2023/04/12 12:39:10;;;;;;;11.50;2.55;;;13.00;99.90;;;;;;5057096;28;20043;-55
2023/04/12 12:41:36;;;;;;;15.07;2.72;;;12.90;99.90;;;;;;5061177;28;20120;-58
2023/04/12 12:44:01;;;;;;;10.90;1.85;;;12.80;99.90;;;;;;5058736;28;20131;-56
2023/04/12 12:46:28;;;;;;;15.13;2.53;;;12.80;99.90;;;;;;5061310;28;20040;-56
2023/04/12 12:48:54;;;;;;;17.00;2.00;;;12.70;99.90;;;;;;5055583;28;20040;-55
2023/04/12 12:51:20;;;;;;;11.38;1.95;;;12.70;99.90;;;;;;5056973;28;20518;-54